createdAt,value
2019-03-28T00:01:47.359Z,24.80
2019-03-28T00:04:13.419Z,27.00
2019-03-28T00:06:39.539Z,25.67
2019-03-28T00:09:07.850Z,34.90
2019-03-28T00:11:34.422Z,35.37
2019-03-28T00:14:00.620Z,26.50
2019-03-28T00:16:26.771Z,31.73
2019-03-28T00:18:53.221Z,24.67
2019-03-28T00:21:19.774Z,23.53
2019-03-28T00:23:47.777Z,28.50
2019-03-28T00:26:13.960Z,23.37
2019-03-28T00:28:40.053Z,24.53
2019-03-28T00:31:06.196Z,23.63
2019-03-28T00:33:32.248Z,26.30
2019-03-28T00:35:58.784Z,25.70
2019-03-28T00:38:25.203Z,34.17
2019-03-28T00:40:51.356Z,29.37
2019-03-28T00:43:17.445Z,29.37
2019-03-28T00:45:44.657Z,31.57
2019-03-28T00:48:10.876Z,26.60
2019-03-28T00:50:36.968Z,25.93
2019-03-28T00:53:03.246Z,24.33
2019-03-28T00:55:29.387Z,24.77
2019-03-28T00:57:55.484Z,23.83
2019-03-28T01:00:21.975Z,24.90
2019-03-28T01:02:48.157Z,23.43
2019-03-28T01:05:14.515Z,25.40
2019-03-28T01:07:40.939Z,27.70
2019-03-28T01:10:07.513Z,26.47
2019-03-28T01:12:33.692Z,30.87
2019-03-28T01:14:59.843Z,28.83
2019-03-28T01:17:26.348Z,24.20
2019-03-28T01:19:52.500Z,24.63
2019-03-28T01:22:18.764Z,24.70
2019-03-28T01:24:45.232Z,19.53
2019-03-28T01:27:11.386Z,23.03
2019-03-28T01:29:37.576Z,24.60
2019-03-28T01:32:04.007Z,19.70
2019-03-28T01:34:30.442Z,32.15
2019-03-28T01:36:56.879Z,28.43
2019-03-28T01:39:22.932Z,24.73
2019-03-28T01:41:49.397Z,27.63
2019-03-28T01:44:15.543Z,25.30
2019-03-28T01:46:41.612Z,26.43
2019-03-28T01:49:07.700Z,25.30
2019-03-28T01:51:34.264Z,26.93
2019-03-28T01:54:00.349Z,23.57
2019-03-28T01:56:26.541Z,24.10
2019-03-28T01:58:52.708Z,23.00
2019-03-28T02:01:18.787Z,24.80
2019-03-28T02:03:44.843Z,39.30
2019-03-28T02:06:10.947Z,26.30
2019-03-28T02:08:37.042Z,31.30
2019-03-28T02:11:03.188Z,25.63
2019-03-28T02:13:29.326Z,30.97
2019-03-28T02:15:55.562Z,26.50
2019-03-28T02:18:21.656Z,22.50
2019-03-28T02:20:48.244Z,24.63
2019-03-28T02:23:14.378Z,24.43
2019-03-28T02:25:40.489Z,23.17
2019-03-28T02:28:06.696Z,23.40
2019-03-28T02:30:33.279Z,29.63
2019-03-28T02:32:59.993Z,24.23
2019-03-28T02:35:26.796Z,25.60
2019-03-28T02:37:52.847Z,23.93
2019-03-28T02:40:19.287Z,30.23
2019-03-28T02:42:45.363Z,24.47
2019-03-28T02:45:12.160Z,26.90
2019-03-28T02:47:38.747Z,26.57
2019-03-28T02:50:05.404Z,18.93
2019-03-28T02:52:31.465Z,28.77
2019-03-28T02:54:58.036Z,21.73
2019-03-28T02:57:39.642Z,20.40
2019-03-28T02:59:52.371Z,19.50
2019-03-28T03:02:18.616Z,19.97
2019-03-28T03:04:44.725Z,21.93
2019-03-28T03:07:10.884Z,23.53
2019-03-28T03:09:37.074Z,21.53
2019-03-28T03:12:03.363Z,24.20
2019-03-28T03:14:29.563Z,27.23
2019-03-28T03:16:55.727Z,26.53
2019-03-28T03:19:22.152Z,25.57
2019-03-28T03:21:48.250Z,23.10
2019-03-28T03:24:14.492Z,19.33
2019-03-28T03:26:40.603Z,26.63
2019-03-28T03:29:06.737Z,37.47
2019-03-28T03:31:32.896Z,21.10
2019-03-28T03:33:59.061Z,31.33
2019-03-28T03:36:25.216Z,27.43
2019-03-28T03:38:51.293Z,25.80
2019-03-28T03:41:17.836Z,27.80
2019-03-28T03:43:43.980Z,38.70
2019-03-28T03:46:10.064Z,30.23
2019-03-28T03:48:36.240Z,26.30
2019-03-28T03:51:02.279Z,24.43
2019-03-28T03:53:28.363Z,26.40
2019-03-28T03:55:54.618Z,23.63
2019-03-28T03:58:21.140Z,24.70
2019-03-28T04:00:47.198Z,22.33
2019-03-28T04:03:13.259Z,22.60
2019-03-28T04:05:39.338Z,22.43
2019-03-28T04:08:05.530Z,25.87
2019-03-28T04:10:31.729Z,25.50
2019-03-28T04:12:57.931Z,15.00
2019-03-28T04:15:24.077Z,22.27
2019-03-28T04:17:50.338Z,25.90
2019-03-28T04:20:16.508Z,19.07
2019-03-28T04:22:42.709Z,22.50
2019-03-28T04:25:08.882Z,22.23
2019-03-28T04:27:35.048Z,22.90
2019-03-28T04:30:01.133Z,24.07
2019-03-28T04:32:27.329Z,27.10
2019-03-28T04:34:53.476Z,26.23
2019-03-28T04:37:19.579Z,24.37
2019-03-28T04:39:45.735Z,30.47
2019-03-28T04:42:11.783Z,23.87
2019-03-28T04:44:37.888Z,24.83
2019-03-28T04:47:03.964Z,23.97
2019-03-28T04:49:30.045Z,26.60
2019-03-28T04:51:56.228Z,24.80
2019-03-28T04:54:22.316Z,22.55
2019-03-28T04:56:48.387Z,24.03
2019-03-28T04:59:15.364Z,24.43
2019-03-28T05:01:42.043Z,22.63
2019-03-28T05:04:08.104Z,28.50
2019-03-28T05:06:37.736Z,27.17
2019-03-28T05:09:04.247Z,27.77
2019-03-28T05:11:30.728Z,12.23
2019-03-28T05:13:57.283Z,8.37
2019-03-28T05:16:23.549Z,10.40
2019-03-28T05:18:50.111Z,5.27
2019-03-28T05:21:16.168Z,7.80
2019-03-28T05:23:42.283Z,11.97
2019-03-28T05:26:08.852Z,0.83
2019-03-28T05:28:35.045Z,2.53
2019-03-28T05:31:01.487Z,6.90
2019-03-28T05:33:27.944Z,4.70
2019-03-28T05:35:54.483Z,10.93
2019-03-28T05:38:20.949Z,13.90
2019-03-28T05:40:47.129Z,15.43
2019-03-28T05:43:13.689Z,26.60
2019-03-28T05:45:39.935Z,9.10
2019-03-28T05:48:06.505Z,13.37
2019-03-28T05:50:32.656Z,7.90
2019-03-28T05:52:58.748Z,15.73
2019-03-28T05:55:24.921Z,28.40
2019-03-28T05:57:51.087Z,36.40
2019-03-28T06:00:17.170Z,35.43
2019-03-28T06:02:43.380Z,38.73
2019-03-28T06:05:09.548Z,45.53
2019-03-28T06:07:36.337Z,35.93
2019-03-28T06:10:05.880Z,34.43
2019-03-28T06:12:31.923Z,37.53
2019-03-28T06:14:57.983Z,30.17
2019-03-28T06:17:24.106Z,30.23
2019-03-28T06:19:50.247Z,13.13
2019-03-28T06:22:16.851Z,16.13
2019-03-28T06:24:42.946Z,18.43
2019-03-28T06:27:09.507Z,12.20
2019-03-28T06:29:35.673Z,21.83
2019-03-28T06:32:02.457Z,15.87
2019-03-28T06:34:29.095Z,27.43
2019-03-28T06:36:55.247Z,33.77
2019-03-28T06:39:21.361Z,27.40
2019-03-28T06:41:48.619Z,28.47
2019-03-28T06:44:14.966Z,31.20
2019-03-28T06:46:41.455Z,35.37
2019-03-28T06:49:07.635Z,30.83
2019-03-28T06:51:33.831Z,31.40
2019-03-28T06:54:00.408Z,21.20
2019-03-28T06:56:26.588Z,20.23
2019-03-28T06:58:53.148Z,30.50
2019-03-28T07:01:19.324Z,23.20
2019-03-28T07:03:47.389Z,43.77
2019-03-28T07:06:19.718Z,32.23
2019-03-28T07:08:45.763Z,31.87
2019-03-28T07:11:15.218Z,33.47
2019-03-28T07:13:41.656Z,35.23
2019-03-28T07:16:07.865Z,29.17
2019-03-28T07:18:34.361Z,28.43
2019-03-28T07:21:00.552Z,24.03
2019-03-28T07:23:26.657Z,27.23
2019-03-28T07:25:52.865Z,29.43
2019-03-28T07:28:19.041Z,18.77
2019-03-28T07:30:45.643Z,25.47
2019-03-28T07:33:12.212Z,18.10
2019-03-28T07:35:38.369Z,31.77
2019-03-28T07:38:05.150Z,29.63
2019-03-28T07:40:33.493Z,33.17
2019-03-28T07:42:59.284Z,29.27
2019-03-28T07:45:26.344Z,31.17
2019-03-28T07:47:52.492Z,38.97
2019-03-28T07:50:18.603Z,26.10
2019-03-28T07:52:52.562Z,24.80
2019-03-28T07:55:20.280Z,30.73
2019-03-28T07:57:46.876Z,23.03
2019-03-28T08:00:13.431Z,22.93
2019-03-28T08:02:39.545Z,30.80
2019-03-28T08:05:08.588Z,33.60
2019-03-28T08:07:44.342Z,33.47
2019-03-28T08:10:05.019Z,37.53
2019-03-28T08:12:31.113Z,39.17
2019-03-28T08:14:57.267Z,35.90
2019-03-28T08:17:23.415Z,36.70
2019-03-28T08:19:49.460Z,34.63
2019-03-28T08:22:15.553Z,24.83
2019-03-28T08:24:41.688Z,27.77
2019-03-28T08:27:07.740Z,19.97
2019-03-28T08:29:33.842Z,29.80
2019-03-28T08:32:00.528Z,22.87
2019-03-28T08:34:27.012Z,25.83
2019-03-28T08:36:53.234Z,25.67
2019-03-28T08:39:19.886Z,27.67
2019-03-28T08:41:48.580Z,27.97
2019-03-28T08:44:13.999Z,29.50
2019-03-28T08:46:40.102Z,27.33
2019-03-28T08:49:06.300Z,23.70
2019-03-28T08:51:32.460Z,20.57
2019-03-28T08:53:58.544Z,19.53
2019-03-28T08:56:24.598Z,22.63
2019-03-28T08:58:50.684Z,19.03
2019-03-28T09:01:17.046Z,23.53
2019-03-28T09:03:43.212Z,30.13
2019-03-28T09:06:09.297Z,22.97
2019-03-28T09:08:35.523Z,23.87
2019-03-28T09:11:01.725Z,27.50
2019-03-28T09:13:27.815Z,25.90
2019-03-28T09:15:53.966Z,26.30
2019-03-28T09:18:20.036Z,28.37
2019-03-28T09:20:46.092Z,21.17
2019-03-28T09:23:12.177Z,25.23
2019-03-28T09:25:38.414Z,18.57
2019-03-28T09:28:04.465Z,27.03
2019-03-28T09:30:48.026Z,23.20
2019-03-28T09:33:07.578Z,24.77
2019-03-28T09:35:34.168Z,23.37
2019-03-28T09:38:00.349Z,22.93
2019-03-28T09:40:26.504Z,28.53
2019-03-28T09:42:52.616Z,34.37
2019-03-28T09:45:18.704Z,27.77
2019-03-28T09:47:44.872Z,34.27
2019-03-28T09:50:10.960Z,23.07
2019-03-28T09:52:37.104Z,22.60
2019-03-28T09:55:04.601Z,20.73
2019-03-28T09:57:30.708Z,21.80
2019-03-28T09:59:56.969Z,19.50
2019-03-28T10:02:23.099Z,29.20
2019-03-28T10:04:49.181Z,28.67
2019-03-28T10:07:15.262Z,27.23
2019-03-28T10:09:41.921Z,23.53
2019-03-28T10:12:08.152Z,26.67
2019-03-28T10:14:34.237Z,28.43
2019-03-28T10:17:01.386Z,30.53
2019-03-28T10:19:27.663Z,24.17
2019-03-28T10:21:53.752Z,20.40
2019-03-28T10:24:19.908Z,21.07
2019-03-28T10:26:45.967Z,24.03
2019-03-28T10:29:12.519Z,22.07
2019-03-28T10:31:38.592Z,18.40
2019-03-28T10:34:04.680Z,30.23
2019-03-28T10:36:30.747Z,31.67
2019-03-28T10:38:56.807Z,27.47
2019-03-28T10:41:25.737Z,29.37
2019-03-28T10:43:50.885Z,33.20
2019-03-28T10:46:17.108Z,26.13
2019-03-28T10:48:43.255Z,20.97
2019-03-28T10:51:09.408Z,21.00
2019-03-28T10:53:35.599Z,28.10
2019-03-28T10:56:01.805Z,23.83
2019-03-28T10:58:27.922Z,18.40
2019-03-28T11:00:54.854Z,27.97
2019-03-28T11:03:21.619Z,19.60
2019-03-28T11:05:47.762Z,29.50
2019-03-28T11:08:13.885Z,30.90
2019-03-28T11:10:40.089Z,30.43
2019-03-28T11:13:09.369Z,24.87
2019-03-28T11:15:34.188Z,30.33
2019-03-28T11:18:00.256Z,22.43
2019-03-28T11:20:26.328Z,24.57
2019-03-28T11:22:52.414Z,21.30
2019-03-28T11:25:18.573Z,23.17
2019-03-28T11:27:44.728Z,18.87
2019-03-28T11:30:11.183Z,20.20
2019-03-28T11:32:37.304Z,23.20
2019-03-28T11:35:06.687Z,30.80
2019-03-28T11:37:33.804Z,30.60
2019-03-28T11:39:59.889Z,30.43
2019-03-28T11:42:26.053Z,33.47
2019-03-28T11:44:52.352Z,29.17
2019-03-28T11:47:20.685Z,25.00
2019-03-28T11:49:46.785Z,21.40
2019-03-28T11:52:13.344Z,18.87
2019-03-28T11:54:39.529Z,19.60
2019-03-28T11:57:05.719Z,25.53
2019-03-28T11:59:31.848Z,22.10
2019-03-28T12:02:02.110Z,19.33
2019-03-28T12:04:25.907Z,6.45
2019-03-28T12:06:52.053Z,25.77
2019-03-28T12:09:18.119Z,23.67
2019-03-28T12:11:44.216Z,26.40
2019-03-28T12:14:10.748Z,28.00
2019-03-28T12:16:36.801Z,27.37
2019-03-28T12:19:03.016Z,21.17
2019-03-28T12:21:29.192Z,19.37
2019-03-28T12:23:55.384Z,21.07
2019-03-28T12:26:21.608Z,20.43
2019-03-28T12:28:47.785Z,19.80
2019-03-28T12:31:13.876Z,22.20
2019-03-28T12:33:40.391Z,30.87
2019-03-28T12:36:06.992Z,31.90
2019-03-28T12:38:33.140Z,25.67
2019-03-28T12:40:59.242Z,39.40
2019-03-28T12:43:25.400Z,28.50
2019-03-28T12:45:51.456Z,29.23
2019-03-28T12:48:17.579Z,25.20
2019-03-28T12:50:43.723Z,22.17
2019-03-28T12:53:10.940Z,21.33
2019-03-28T12:55:37.279Z,21.20
2019-03-28T12:58:03.432Z,24.57
2019-03-28T13:00:33.611Z,33.77
2019-03-28T13:02:59.880Z,18.80
2019-03-28T13:05:26.024Z,31.40
2019-03-28T13:07:52.208Z,33.43
2019-03-28T13:10:18.734Z,29.60
2019-03-28T13:12:44.796Z,21.80
2019-03-28T13:15:11.259Z,23.47
2019-03-28T13:17:37.432Z,28.67
2019-03-28T13:20:06.749Z,23.20
2019-03-28T13:22:33.052Z,25.10
2019-03-28T13:24:59.207Z,23.50
2019-03-28T13:27:25.286Z,34.97
2019-03-28T13:29:51.327Z,20.27
2019-03-28T13:32:17.423Z,20.27
2019-03-28T13:34:43.855Z,23.17
2019-03-28T13:37:10.096Z,22.73
2019-03-28T13:39:36.155Z,24.23
2019-03-28T13:42:02.588Z,23.83
2019-03-28T13:44:30.327Z,27.82
2019-03-28T13:46:57.100Z,19.83
2019-03-28T13:49:23.235Z,23.60
2019-03-28T13:51:49.283Z,11.77
2019-03-28T13:54:15.348Z,17.03
2019-03-28T13:56:41.508Z,22.40
2019-03-28T13:59:07.635Z,17.73
2019-03-28T14:01:33.693Z,15.67
2019-03-28T14:03:59.823Z,13.60
2019-03-28T14:06:26.011Z,22.13
2019-03-28T14:08:52.073Z,19.33
2019-03-28T14:11:18.127Z,17.80
2019-03-28T14:13:44.190Z,28.00
2019-03-28T14:16:10.244Z,24.07
2019-03-28T14:18:36.679Z,21.47
2019-03-28T14:21:02.734Z,18.83
2019-03-28T14:23:28.795Z,12.10
2019-03-28T14:25:55.251Z,4.50
2019-03-28T14:28:21.304Z,4.70
2019-03-28T14:30:48.891Z,4.40
2019-03-28T14:33:16.039Z,2.72
2019-03-28T14:35:42.669Z,4.23
2019-03-28T14:38:09.097Z,8.37
2019-03-28T14:40:35.152Z,10.47
2019-03-28T14:43:01.604Z,11.37
2019-03-28T14:45:28.049Z,6.10
2019-03-28T14:47:54.480Z,15.75
2019-03-28T14:50:35.065Z,6.23
2019-03-28T14:53:01.516Z,6.77
2019-03-28T14:55:28.204Z,1.70
2019-03-28T14:57:54.963Z,7.90
2019-03-28T15:00:41.895Z,13.97
2019-03-28T15:03:08.327Z,2.70
2019-03-28T15:05:34.767Z,10.97
2019-03-28T15:08:01.223Z,7.13
2019-03-28T15:10:27.758Z,4.77
2019-03-28T15:12:53.988Z,8.33
2019-03-28T15:15:20.052Z,7.27
2019-03-28T15:17:46.179Z,7.37
2019-03-28T15:20:12.701Z,2.33
2019-03-28T15:22:38.925Z,2.57
2019-03-28T15:25:05.779Z,3.43
2019-03-28T15:27:32.247Z,3.47
2019-03-28T15:29:58.696Z,7.13
2019-03-28T15:32:24.748Z,2.00
2019-03-28T15:34:50.836Z,12.43
2019-03-28T15:37:17.285Z,8.87
2019-03-28T15:39:43.421Z,8.33
2019-03-28T15:42:09.695Z,8.80
2019-03-28T15:44:39.163Z,8.98
2019-03-28T15:47:03.725Z,10.70
2019-03-28T15:49:29.795Z,3.33
2019-03-28T15:51:56.363Z,8.73
2019-03-28T15:54:22.564Z,4.10
2019-03-28T15:56:48.622Z,8.63
2019-03-28T15:59:15.119Z,5.27
2019-03-28T16:01:41.299Z,1.83
2019-03-28T16:04:07.466Z,11.07
2019-03-28T16:06:34.092Z,15.40
2019-03-28T16:09:00.667Z,13.13
2019-03-28T16:11:27.202Z,9.57
2019-03-28T16:13:53.395Z,15.57
2019-03-28T16:16:19.472Z,9.03
2019-03-28T16:18:46.036Z,4.50
2019-03-28T16:21:12.103Z,3.20
2019-03-28T16:23:38.702Z,18.87
2019-03-28T16:26:04.769Z,3.37
2019-03-28T16:28:30.819Z,4.30
2019-03-28T16:30:57.287Z,6.57
2019-03-28T16:33:23.403Z,6.73
2019-03-28T16:35:49.836Z,14.97
2019-03-28T16:38:15.915Z,14.80
2019-03-28T16:40:42.067Z,18.57
2019-03-28T16:43:08.582Z,10.03
2019-03-28T16:45:35.263Z,8.73
2019-03-28T16:48:01.747Z,14.87
2019-03-28T16:50:28.273Z,4.40
2019-03-28T16:52:54.523Z,4.97
2019-03-28T16:55:26.140Z,8.50
2019-03-28T16:57:48.623Z,5.10
2019-03-28T17:00:15.580Z,9.97
2019-03-28T17:02:41.631Z,4.60
2019-03-28T17:05:07.994Z,18.17
2019-03-28T17:07:34.981Z,9.00
2019-03-28T17:10:01.539Z,18.90
2019-03-28T17:12:27.984Z,10.67
2019-03-28T17:14:54.414Z,14.80
2019-03-28T17:17:20.847Z,9.37
2019-03-28T17:19:47.282Z,5.73
2019-03-28T17:22:13.739Z,10.37
2019-03-28T17:24:39.788Z,4.20
2019-03-28T17:27:05.855Z,4.70
2019-03-28T17:29:32.448Z,12.73
2019-03-28T17:31:58.504Z,7.60
2019-03-28T17:34:34.591Z,10.70
2019-03-28T17:36:52.907Z,10.07
2019-03-28T17:39:19.442Z,13.37
2019-03-28T17:41:45.959Z,20.60
2019-03-28T17:44:14.473Z,15.20
2019-03-28T17:46:40.820Z,10.80
2019-03-28T17:49:06.936Z,7.93
2019-03-28T17:51:33.368Z,8.00
2019-03-28T17:53:59.818Z,8.53
2019-03-28T17:56:25.906Z,7.40
2019-03-28T17:58:52.063Z,5.50
2019-03-28T18:01:18.116Z,5.20
2019-03-28T18:03:44.539Z,15.10
2019-03-28T18:06:10.990Z,10.73
2019-03-28T18:08:37.431Z,11.90
2019-03-28T18:11:03.488Z,12.37
2019-03-28T18:13:29.638Z,20.77
2019-03-28T18:15:55.799Z,9.43
2019-03-28T18:18:21.848Z,10.50
2019-03-28T18:20:48.319Z,10.50
2019-03-28T18:23:14.374Z,6.17
2019-03-28T18:25:40.516Z,14.67
2019-03-28T18:28:06.575Z,11.37
2019-03-28T18:30:32.627Z,4.73
2019-03-28T18:32:58.696Z,8.30
2019-03-28T18:35:25.131Z,12.27
2019-03-28T18:37:51.180Z,12.70
2019-03-28T18:40:17.880Z,10.85
2019-03-28T18:42:44.149Z,4.67
2019-03-28T18:45:12.746Z,12.00
2019-03-28T18:47:39.171Z,10.63
2019-03-28T18:50:06.141Z,4.47
2019-03-28T18:52:32.328Z,2.62
2019-03-28T18:54:58.403Z,13.47
2019-03-28T18:57:24.633Z,6.15
2019-03-28T18:59:50.891Z,3.20
2019-03-28T19:02:17.108Z,5.90
2019-03-28T19:04:43.640Z,14.27
2019-03-28T19:07:10.049Z,11.17
2019-03-28T19:09:37.065Z,14.73
2019-03-28T19:12:03.501Z,7.60
2019-03-28T19:14:29.672Z,11.15
2019-03-28T19:16:56.164Z,14.63
2019-03-28T19:19:22.627Z,12.07
2019-03-28T19:21:48.693Z,5.77
2019-03-28T19:24:15.291Z,2.70
2019-03-28T19:26:41.424Z,6.00
2019-03-28T19:29:07.915Z,3.97
2019-03-28T19:31:34.422Z,3.77
2019-03-28T19:34:00.839Z,10.60
2019-03-28T19:36:27.554Z,9.77
2019-03-28T19:38:54.069Z,5.53
2019-03-28T19:41:20.834Z,6.67
2019-03-28T19:43:48.078Z,10.30
2019-03-28T19:46:14.329Z,11.73
2019-03-28T19:48:40.644Z,8.40
2019-03-28T19:51:07.928Z,7.57
2019-03-28T19:53:36.607Z,2.10
2019-03-28T19:56:03.149Z,7.70
2019-03-28T19:58:29.200Z,9.57
2019-03-28T20:00:55.489Z,6.67
2019-03-28T20:03:23.150Z,5.80
2019-03-28T20:05:50.205Z,13.37
2019-03-28T20:08:18.347Z,11.43
2019-03-28T20:10:45.562Z,13.13
2019-03-28T20:13:11.940Z,7.97
2019-03-28T20:15:38.170Z,9.60
2019-03-28T20:18:04.303Z,13.87
2019-03-28T20:20:30.815Z,11.97
2019-03-28T20:22:57.360Z,8.13
2019-03-28T20:25:23.828Z,4.17
2019-03-28T20:27:50.260Z,4.57
2019-03-28T20:30:16.737Z,1.27
2019-03-28T20:32:42.856Z,8.50
2019-03-28T20:35:10.759Z,6.67
2019-03-28T20:37:37.948Z,15.93
2019-03-28T20:40:05.362Z,17.40
2019-03-28T20:42:31.426Z,11.40
2019-03-28T20:44:57.964Z,27.15
2019-03-28T20:47:24.278Z,11.20
2019-03-28T20:49:51.032Z,3.53
2019-03-28T20:52:17.079Z,10.57
2019-03-28T20:54:43.129Z,6.00
2019-03-28T20:57:09.826Z,6.97
2019-03-28T20:59:36.067Z,6.00
2019-03-28T21:02:02.175Z,28.20
2019-03-28T21:04:31.626Z,23.75
2019-03-28T21:06:56.947Z,20.77
2019-03-28T21:09:23.658Z,13.97
2019-03-28T21:11:49.789Z,4.07
2019-03-28T21:14:15.980Z,20.63
2019-03-28T21:16:42.080Z,12.63
2019-03-28T21:19:08.515Z,9.80
2019-03-28T21:21:34.590Z,8.40
2019-03-28T21:24:00.695Z,9.17
2019-03-28T21:26:26.749Z,3.60
2019-03-28T21:28:52.805Z,4.60
2019-03-28T21:31:18.862Z,23.40
2019-03-28T21:33:44.914Z,14.37
2019-03-28T21:36:11.076Z,29.47
2019-03-28T21:38:37.159Z,22.07
2019-03-28T21:41:03.652Z,23.10
2019-03-28T21:43:30.801Z,8.70
2019-03-28T21:45:57.687Z,13.73
2019-03-28T21:48:23.768Z,14.20
2019-03-28T21:50:49.819Z,20.27
2019-03-28T21:53:16.339Z,23.50
2019-03-28T21:55:54.369Z,23.23
2019-03-28T21:58:10.386Z,25.67
2019-03-28T22:00:36.483Z,23.40
2019-03-28T22:03:02.531Z,21.53
2019-03-28T22:05:30.630Z,26.97
2019-03-28T22:07:57.367Z,28.30
2019-03-28T22:10:23.815Z,13.03
2019-03-28T22:12:50.019Z,3.23
2019-03-28T22:15:16.214Z,6.63
2019-03-28T22:17:42.391Z,16.80
2019-03-28T22:20:08.800Z,4.67
2019-03-28T22:22:35.223Z,8.50
2019-03-28T22:25:01.468Z,2.67
2019-03-28T22:27:27.984Z,6.07
2019-03-28T22:29:54.051Z,4.70
2019-03-28T22:32:20.591Z,18.47
2019-03-28T22:34:47.056Z,14.07
2019-03-28T22:37:13.610Z,21.43
2019-03-28T22:39:39.783Z,4.83
2019-03-28T22:42:06.211Z,9.00
2019-03-28T22:44:33.971Z,8.20
2019-03-28T22:47:00.247Z,11.87
2019-03-28T22:49:26.421Z,2.77
2019-03-28T22:51:52.791Z,3.67
2019-03-28T22:54:18.958Z,11.40
2019-03-28T22:56:45.590Z,5.70
2019-03-28T22:59:11.715Z,5.43
2019-03-28T23:01:38.227Z,11.73
2019-03-28T23:04:04.671Z,22.33
2019-03-28T23:06:31.178Z,9.75
2019-03-28T23:08:58.816Z,13.60
2019-03-28T23:11:25.431Z,7.60
2019-03-28T23:13:52.828Z,12.33
2019-03-28T23:16:19.407Z,8.57
2019-03-28T23:18:45.518Z,5.40
2019-03-28T23:21:11.787Z,4.33
2019-03-28T23:23:38.351Z,9.40
2019-03-28T23:26:04.859Z,4.70
2019-03-28T23:28:30.969Z,18.70
2019-03-28T23:30:57.034Z,18.60
2019-03-28T23:33:23.288Z,26.20
2019-03-28T23:35:49.403Z,26.93
2019-03-28T23:38:15.931Z,31.77
2019-03-28T23:40:42.055Z,34.53
2019-03-28T23:43:09.813Z,28.20
2019-03-28T23:45:36.496Z,28.97
2019-03-28T23:48:03.343Z,31.33
2019-03-28T23:50:29.485Z,23.20
2019-03-28T23:52:55.639Z,24.92
2019-03-28T23:55:21.736Z,26.07
2019-03-28T23:57:47.899Z,28.83
